createdAt,value
2022-12-18T00:02:14.178Z,16.92
2022-12-18T00:04:41.168Z,17.58
2022-12-18T00:07:08.407Z,19.48
2022-12-18T00:09:40.261Z,17.65
2022-12-18T00:14:44.385Z,16.02
2022-12-18T00:17:11.492Z,15.93
2022-12-18T00:19:38.302Z,15.57
2022-12-18T00:22:07.026Z,15.50
2022-12-18T00:24:33.886Z,16.55
2022-12-18T00:27:01.029Z,16.60
2022-12-18T00:29:27.959Z,15.95
2022-12-18T00:31:55.136Z,17.02
2022-12-18T00:34:21.983Z,15.43
2022-12-18T00:36:49.434Z,17.10
2022-12-18T00:39:16.504Z,17.17
2022-12-18T00:42:03.818Z,18.05
2022-12-18T00:44:31.933Z,16.85
2022-12-18T00:46:59.610Z,16.05
2022-12-18T00:49:26.539Z,15.85
2022-12-18T00:51:54.349Z,19.90
2022-12-18T00:54:21.241Z,16.10
2022-12-18T00:56:49.676Z,16.52
2022-12-18T00:59:18.800Z,18.48
2022-12-18T01:01:46.242Z,17.33
2022-12-18T01:04:13.645Z,16.83
2022-12-18T01:06:41.269Z,17.23
2022-12-18T01:09:08.166Z,17.20
2022-12-18T01:11:37.517Z,18.92
2022-12-18T01:14:05.536Z,18.45
2022-12-18T01:16:32.787Z,17.55
2022-12-18T01:18:59.687Z,16.10
2022-12-18T01:21:28.046Z,17.60
2022-12-18T01:23:56.642Z,17.30
2022-12-18T01:26:25.760Z,18.17
2022-12-18T01:28:52.813Z,17.08
2022-12-18T01:31:25.809Z,18.42
2022-12-18T01:33:54.165Z,14.45
2022-12-18T01:36:24.834Z,17.00
2022-12-18T01:38:52.672Z,17.17
2022-12-18T01:41:24.557Z,16.67
2022-12-18T01:43:57.939Z,17.90
2022-12-18T01:46:27.141Z,20.52
2022-12-18T01:49:02.425Z,16.60
2022-12-18T01:51:31.756Z,16.02
2022-12-18T01:54:00.321Z,16.70
2022-12-18T01:56:28.175Z,16.33
2022-12-18T01:59:00.972Z,15.80
2022-12-18T02:01:30.336Z,15.52
2022-12-18T02:04:17.379Z,16.95
2022-12-18T02:06:45.046Z,15.00
2022-12-18T02:09:19.765Z,15.48
2022-12-18T02:11:58.085Z,15.98
2022-12-18T02:14:44.117Z,15.77
2022-12-18T02:17:19.369Z,15.93
2022-12-18T02:20:11.775Z,18.10
2022-12-18T02:22:45.606Z,15.95
2022-12-18T02:25:27.889Z,18.02
2022-12-18T02:27:58.841Z,17.63
2022-12-18T02:30:27.640Z,15.00
2022-12-18T02:32:56.848Z,15.05
2022-12-18T02:35:44.533Z,16.20
2022-12-18T02:38:13.510Z,16.17
2022-12-18T02:40:43.550Z,15.05
2022-12-18T02:43:16.706Z,17.63
2022-12-18T02:45:53.335Z,17.88
2022-12-18T02:48:33.630Z,17.35
2022-12-18T02:51:23.056Z,16.92
2022-12-18T02:54:35.836Z,16.10
2022-12-18T02:57:15.779Z,18.92
2022-12-18T02:59:59.365Z,20.30
2022-12-18T03:03:04.154Z,15.68
2022-12-18T03:05:37.820Z,15.88
2022-12-18T03:08:09.755Z,14.85
2022-12-18T03:10:50.693Z,15.55
2022-12-18T03:13:25.626Z,16.90
2022-12-18T03:15:56.892Z,16.63
2022-12-18T03:18:30.775Z,15.07
2022-12-18T03:21:01.265Z,15.35
2022-12-18T03:23:33.461Z,16.13
2022-12-18T03:26:07.617Z,16.88
2022-12-18T03:28:44.159Z,18.20
2022-12-18T03:31:14.244Z,16.65
2022-12-18T03:33:53.484Z,21.48
2022-12-18T03:36:25.674Z,16.55
2022-12-18T03:38:52.845Z,16.75
2022-12-18T03:41:34.682Z,17.55
2022-12-18T03:45:09.354Z,16.02
2022-12-18T03:48:12.485Z,15.63
2022-12-18T03:50:41.634Z,15.82
2022-12-18T03:53:27.117Z,18.33
2022-12-18T03:55:54.798Z,15.18
2022-12-18T03:58:26.738Z,16.30
2022-12-18T04:01:10.034Z,17.55
2022-12-18T04:03:39.360Z,13.00
2022-12-18T04:06:08.640Z,16.98
2022-12-18T04:08:36.430Z,14.82
2022-12-18T04:11:06.976Z,16.10
2022-12-18T04:13:39.332Z,15.82
2022-12-18T04:16:11.211Z,15.65
2022-12-18T04:18:41.784Z,19.67
2022-12-18T04:21:09.310Z,19.55
2022-12-18T04:23:37.624Z,17.27
2022-12-18T04:26:04.933Z,15.75
2022-12-18T04:28:50.882Z,18.55
2022-12-18T04:31:17.833Z,19.25
2022-12-18T04:33:45.118Z,13.48
2022-12-18T04:36:13.435Z,15.73
2022-12-18T04:38:41.290Z,17.67
2022-12-18T04:41:12.197Z,16.17
2022-12-18T04:43:40.860Z,13.30
2022-12-18T04:46:09.085Z,14.18
2022-12-18T04:48:37.410Z,15.48
2022-12-18T04:51:05.541Z,14.07
2022-12-18T04:53:33.468Z,15.43
2022-12-18T04:56:04.565Z,13.02
2022-12-18T05:00:58.427Z,13.98
2022-12-18T05:03:25.566Z,16.38
2022-12-18T05:05:52.704Z,15.52
2022-12-18T05:08:20.026Z,14.73
2022-12-18T05:10:46.905Z,15.20
2022-12-18T05:13:14.231Z,14.65
2022-12-18T05:15:41.164Z,15.23
2022-12-18T05:18:08.843Z,14.57
2022-12-18T05:20:35.640Z,13.68
2022-12-18T05:23:02.743Z,13.13
2022-12-18T05:25:29.707Z,14.82
2022-12-18T05:27:57.105Z,12.63
2022-12-18T05:30:24.178Z,16.95
2022-12-18T05:32:51.234Z,16.02
2022-12-18T05:35:18.663Z,15.98
2022-12-18T05:37:46.024Z,21.02
2022-12-18T05:40:13.143Z,16.90
2022-12-18T05:42:40.656Z,16.27
2022-12-18T05:45:08.109Z,19.98
2022-12-18T05:47:35.274Z,16.80
2022-12-18T05:50:02.209Z,17.60
2022-12-18T05:52:29.344Z,17.88
2022-12-18T05:54:56.095Z,18.98
2022-12-18T05:57:23.247Z,19.50
2022-12-18T05:59:50.092Z,20.17
2022-12-18T06:02:17.585Z,17.50
2022-12-18T06:04:44.898Z,17.95
2022-12-18T06:07:12.040Z,23.15
2022-12-18T06:09:38.755Z,17.45
2022-12-18T06:12:06.230Z,17.13
2022-12-18T06:14:33.051Z,20.17
2022-12-18T06:17:00.184Z,19.45
2022-12-18T06:19:26.959Z,16.58
2022-12-18T06:21:54.200Z,19.08
2022-12-18T06:24:21.160Z,21.10
2022-12-18T06:26:48.283Z,19.88
2022-12-18T06:29:15.171Z,19.60
2022-12-18T06:31:42.324Z,18.92
2022-12-18T06:34:09.177Z,20.50
2022-12-18T06:36:36.492Z,20.52
2022-12-18T06:39:04.250Z,18.88
2022-12-18T06:41:31.600Z,19.67
2022-12-18T06:44:00.020Z,18.75
2022-12-18T06:46:28.035Z,18.63
2022-12-18T06:48:54.933Z,18.50
2022-12-18T06:51:24.958Z,21.75
2022-12-18T06:53:52.117Z,19.27
2022-12-18T06:56:19.237Z,16.70
2022-12-18T06:58:46.210Z,19.50
2022-12-18T07:01:31.699Z,17.83
2022-12-18T07:03:59.066Z,17.08
2022-12-18T07:06:27.003Z,17.10
2022-12-18T07:08:55.193Z,21.45
2022-12-18T07:11:22.652Z,17.23
2022-12-18T07:13:49.870Z,16.75
2022-12-18T07:16:24.820Z,16.00
2022-12-18T07:18:55.071Z,20.77
2022-12-18T07:21:22.803Z,18.00
2022-12-18T07:23:50.491Z,18.90
2022-12-18T07:26:20.873Z,16.92
2022-12-18T07:28:49.045Z,17.33
2022-12-18T07:31:19.543Z,17.63
2022-12-18T07:33:49.386Z,16.60
2022-12-18T07:36:16.554Z,18.48
2022-12-18T07:38:44.031Z,17.73
2022-12-18T07:41:13.126Z,17.85
2022-12-18T07:43:42.034Z,17.65
2022-12-18T07:46:10.721Z,17.17
2022-12-18T07:48:41.269Z,17.23
2022-12-18T07:51:08.479Z,17.58
2022-12-18T07:53:37.439Z,17.25
2022-12-18T07:58:54.984Z,16.40
2022-12-18T08:01:22.018Z,19.33
2022-12-18T08:03:50.165Z,19.13
2022-12-18T08:06:22.369Z,16.75
2022-12-18T08:08:53.624Z,20.00
2022-12-18T08:11:20.655Z,17.90
2022-12-18T08:13:48.677Z,17.42
2022-12-18T08:16:16.761Z,18.20
2022-12-18T08:18:43.988Z,18.95
2022-12-18T08:21:22.145Z,18.20
2022-12-18T08:23:51.652Z,18.73
2022-12-18T08:26:19.465Z,17.48
2022-12-18T08:28:48.838Z,17.80
2022-12-18T08:31:16.689Z,17.70
2022-12-18T08:33:44.390Z,17.80
2022-12-18T08:36:12.030Z,18.02
2022-12-18T08:38:39.298Z,17.40
2022-12-18T08:41:08.322Z,18.58
2022-12-18T08:43:54.059Z,17.90
2022-12-18T08:46:22.901Z,17.25
2022-12-18T08:48:52.373Z,17.45
2022-12-18T08:51:20.024Z,18.63
2022-12-18T08:53:47.332Z,21.55
2022-12-18T08:56:14.899Z,19.77
2022-12-18T08:58:43.020Z,18.40
2022-12-18T09:01:12.364Z,18.52
2022-12-18T09:03:40.593Z,19.58
2022-12-18T09:06:08.322Z,18.40
2022-12-18T09:08:35.630Z,19.48
2022-12-18T09:11:03.204Z,17.55
2022-12-18T09:13:30.533Z,17.50
2022-12-18T09:15:57.708Z,20.77
2022-12-18T09:18:26.066Z,18.73
2022-12-18T09:20:54.048Z,20.55
2022-12-18T09:23:22.370Z,19.10
2022-12-18T09:25:49.666Z,16.75
2022-12-18T09:28:20.266Z,20.77
2022-12-18T09:30:50.802Z,20.48
2022-12-18T09:33:18.459Z,22.23
2022-12-18T09:35:46.708Z,20.00
2022-12-18T09:38:19.003Z,19.98
2022-12-18T09:40:51.023Z,19.20
2022-12-18T09:43:23.214Z,19.45
2022-12-18T09:46:00.313Z,20.25
2022-12-18T09:48:32.467Z,19.95
2022-12-18T09:51:11.968Z,17.48
2022-12-18T09:53:41.760Z,18.05
2022-12-18T09:56:16.279Z,19.45
2022-12-18T09:58:54.275Z,18.58
2022-12-18T10:01:25.153Z,19.15
2022-12-18T10:03:54.632Z,21.42
2022-12-18T10:06:30.685Z,19.30
2022-12-18T10:09:09.278Z,20.67
2022-12-18T10:11:45.267Z,21.67
2022-12-18T10:14:35.882Z,23.75
2022-12-18T10:17:13.413Z,21.42
2022-12-18T10:19:50.523Z,22.17
2022-12-18T10:22:27.014Z,21.95
2022-12-18T10:25:15.514Z,22.13
2022-12-18T10:27:42.616Z,23.45
2022-12-18T10:30:18.444Z,24.00
2022-12-18T10:32:45.478Z,22.70
2022-12-18T10:35:21.784Z,24.80
2022-12-18T10:38:21.576Z,27.38
2022-12-18T10:40:56.597Z,22.08
2022-12-18T10:43:42.045Z,22.02
2022-12-18T10:46:09.264Z,21.17
2022-12-18T10:48:54.631Z,23.73
2022-12-18T10:51:34.826Z,22.67
2022-12-18T10:54:17.245Z,22.10
2022-12-18T10:56:45.082Z,21.70
2022-12-18T10:59:15.642Z,21.17
2022-12-18T11:01:52.190Z,22.95
2022-12-18T11:04:24.246Z,20.95
2022-12-18T11:07:00.628Z,20.30
2022-12-18T11:09:36.377Z,22.38
2022-12-18T11:12:17.863Z,20.27
2022-12-18T11:14:51.983Z,27.52
2022-12-18T11:17:36.020Z,21.25
2022-12-18T11:20:21.518Z,22.80
2022-12-18T11:23:01.512Z,21.83
2022-12-18T11:25:32.580Z,20.92
2022-12-18T11:28:05.210Z,20.50
2022-12-18T11:30:36.008Z,21.52
2022-12-18T11:33:10.831Z,22.70
2022-12-18T11:35:56.282Z,23.83
2022-12-18T11:38:30.347Z,22.73
2022-12-18T11:40:59.751Z,21.60
2022-12-18T11:43:36.078Z,21.25
2022-12-18T11:46:08.501Z,20.35
2022-12-18T11:48:44.759Z,20.17
2022-12-18T11:51:18.839Z,20.98
2022-12-18T11:53:46.035Z,23.77
2022-12-18T11:56:23.837Z,20.27
2022-12-18T11:58:58.531Z,21.73
2022-12-18T12:01:51.630Z,20.70
2022-12-18T12:04:39.442Z,21.90
2022-12-18T12:07:48.296Z,21.15
2022-12-18T12:10:28.877Z,22.48
2022-12-18T12:13:11.663Z,24.15
2022-12-18T12:16:07.440Z,23.30
2022-12-18T12:18:44.840Z,22.98
2022-12-18T12:21:37.373Z,22.63
2022-12-18T12:24:19.699Z,22.42
2022-12-18T12:27:00.931Z,22.52
2022-12-18T12:29:39.055Z,24.58
2022-12-18T12:32:12.515Z,22.67
2022-12-18T12:35:09.821Z,25.02
2022-12-18T12:37:42.809Z,24.10
2022-12-18T12:40:49.319Z,23.70
2022-12-18T12:43:16.170Z,22.95
2022-12-18T12:46:10.531Z,24.07
2022-12-18T12:48:49.300Z,22.00
2022-12-18T12:51:34.976Z,21.13
2022-12-18T12:54:06.185Z,21.70
2022-12-18T12:57:12.865Z,23.92
2022-12-18T13:00:04.038Z,21.48
2022-12-18T13:02:57.155Z,19.08
2022-12-18T13:05:32.338Z,19.67
2022-12-18T13:08:07.163Z,20.13
2022-12-18T13:10:36.046Z,23.20
2022-12-18T13:13:13.300Z,21.20
2022-12-18T13:15:49.687Z,22.40
2022-12-18T13:18:24.835Z,22.00
2022-12-18T13:21:05.187Z,20.13
2022-12-18T13:23:35.902Z,18.88
2022-12-18T13:26:11.276Z,21.17
2022-12-18T13:28:47.666Z,20.48
2022-12-18T13:31:36.487Z,21.67
2022-12-18T13:37:32.501Z,19.33
2022-12-18T13:39:59.482Z,22.17
2022-12-18T13:42:58.983Z,21.60
2022-12-18T13:45:42.529Z,22.17
2022-12-18T13:48:25.084Z,21.30
2022-12-18T13:51:01.652Z,21.88
2022-12-18T13:53:34.161Z,22.52
2022-12-18T13:56:01.690Z,21.33
2022-12-18T13:58:28.982Z,20.27
2022-12-18T14:00:56.021Z,24.38
2022-12-18T14:03:29.573Z,22.20
2022-12-18T14:06:04.266Z,22.25
2022-12-18T14:08:40.854Z,20.02
2022-12-18T14:11:18.827Z,20.20
2022-12-18T14:13:47.590Z,20.15
2022-12-18T14:16:16.940Z,22.33
2022-12-18T14:18:56.375Z,20.90
2022-12-18T14:21:31.287Z,24.60
2022-12-18T14:24:06.074Z,19.60
2022-12-18T14:26:34.276Z,23.73
2022-12-18T14:29:19.285Z,22.15
2022-12-18T14:31:46.811Z,21.42
2022-12-18T14:34:18.101Z,19.33
2022-12-18T14:36:53.507Z,20.13
2022-12-18T14:39:20.630Z,19.25
2022-12-18T14:41:50.050Z,20.60
2022-12-18T14:44:17.257Z,21.77
2022-12-18T14:46:49.055Z,21.73
2022-12-18T14:49:22.946Z,21.15
2022-12-18T14:51:52.985Z,20.95
2022-12-18T14:54:23.361Z,21.27
2022-12-18T14:57:02.389Z,21.80
2022-12-18T14:59:30.917Z,19.88
2022-12-18T15:02:20.974Z,22.90
2022-12-18T15:04:48.733Z,22.13
2022-12-18T15:07:17.517Z,21.92
2022-12-18T15:10:02.337Z,20.90
2022-12-18T15:12:42.122Z,21.67
2022-12-18T15:15:34.578Z,19.48
2022-12-18T15:18:08.474Z,19.75
2022-12-18T15:20:56.776Z,19.77
2022-12-18T15:23:28.316Z,18.90
2022-12-18T15:26:07.356Z,19.77
2022-12-18T15:28:47.637Z,19.15
2022-12-18T15:31:15.882Z,20.30
2022-12-18T15:33:51.595Z,21.10
2022-12-18T15:36:26.533Z,21.38
2022-12-18T15:38:56.796Z,20.67
2022-12-18T15:41:36.016Z,20.20
2022-12-18T15:44:04.694Z,21.30
2022-12-18T15:46:32.260Z,21.90
2022-12-18T15:49:02.567Z,18.15
2022-12-18T15:51:34.395Z,19.10
2022-12-18T15:54:04.982Z,18.27
2022-12-18T15:56:51.280Z,16.02
2022-12-18T15:59:20.733Z,18.33
2022-12-18T16:01:50.059Z,18.05
2022-12-18T16:04:21.239Z,19.00
2022-12-18T16:07:13.960Z,18.40
2022-12-18T16:09:36.727Z,18.08
2022-12-18T16:12:04.179Z,18.70
2022-12-18T16:14:31.741Z,18.40
2022-12-18T16:17:06.301Z,18.20
2022-12-18T16:19:33.350Z,19.05
2022-12-18T16:22:00.469Z,15.73
2022-12-18T16:24:33.009Z,17.20
2022-12-18T16:27:01.651Z,16.15
2022-12-18T16:29:30.335Z,17.52
2022-12-18T16:31:59.371Z,18.65
2022-12-18T16:34:29.559Z,17.88
2022-12-18T16:37:04.864Z,19.05
2022-12-18T16:39:34.300Z,18.85
2022-12-18T16:42:05.292Z,18.52
2022-12-18T16:44:34.578Z,17.42
2022-12-18T16:47:03.273Z,16.70
2022-12-18T16:49:30.876Z,17.65
2022-12-18T16:51:58.152Z,17.10
2022-12-18T16:54:25.149Z,18.33
2022-12-18T16:56:52.903Z,19.13
2022-12-18T16:59:20.042Z,17.08
2022-12-18T17:01:48.276Z,19.75
2022-12-18T17:04:15.527Z,19.48
2022-12-18T17:06:45.341Z,19.35
2022-12-18T17:09:15.624Z,21.35
2022-12-18T17:11:43.388Z,20.90
2022-12-18T17:14:15.585Z,20.90
2022-12-18T17:16:43.123Z,21.50
2022-12-18T17:19:16.800Z,20.70
2022-12-18T17:21:47.727Z,22.33
2022-12-18T17:24:14.766Z,20.00
2022-12-18T17:26:42.353Z,20.13
2022-12-18T17:29:13.667Z,20.92
2022-12-18T17:31:40.970Z,19.70
2022-12-18T17:34:09.648Z,20.27
2022-12-18T17:36:37.217Z,20.58
2022-12-18T17:39:05.692Z,18.52
2022-12-18T17:41:33.506Z,18.92
2022-12-18T17:44:02.835Z,19.20
2022-12-18T17:46:32.292Z,19.60
2022-12-18T17:49:00.644Z,18.98
2022-12-18T17:51:28.536Z,19.70
2022-12-18T17:53:55.616Z,18.25
2022-12-18T17:56:24.647Z,18.77
2022-12-18T17:58:52.617Z,18.55
2022-12-18T18:01:23.760Z,18.95
2022-12-18T18:03:53.663Z,18.35
2022-12-18T18:06:22.083Z,20.27
2022-12-18T18:08:48.911Z,19.08
2022-12-18T18:11:37.339Z,18.60
2022-12-18T18:14:07.740Z,17.02
2022-12-18T18:16:40.893Z,17.50
2022-12-18T18:19:11.174Z,17.95
2022-12-18T18:21:41.112Z,19.05
2022-12-18T18:24:09.869Z,18.05
2022-12-18T18:26:37.460Z,19.75
2022-12-18T18:29:06.584Z,20.65
2022-12-18T18:31:41.426Z,19.63
2022-12-18T18:34:14.313Z,19.30
2022-12-18T18:36:42.109Z,20.30
2022-12-18T18:39:09.094Z,19.25
2022-12-18T18:41:37.597Z,20.35
2022-12-18T18:44:04.855Z,19.75
2022-12-18T18:46:32.159Z,20.35
2022-12-18T18:48:59.073Z,20.90
2022-12-18T18:51:31.460Z,17.08
2022-12-18T18:54:01.400Z,17.52
2022-12-18T18:59:17.175Z,19.85
2022-12-18T19:01:44.752Z,19.25
2022-12-18T19:04:11.918Z,17.50
2022-12-18T19:06:39.709Z,19.75
2022-12-18T19:09:07.764Z,20.35
2022-12-18T19:11:53.802Z,19.15
2022-12-18T19:14:20.749Z,17.45
2022-12-18T19:16:48.085Z,18.13
2022-12-18T19:19:17.294Z,18.63
2022-12-18T19:21:44.592Z,17.98
2022-12-18T19:24:11.468Z,19.75
2022-12-18T19:26:38.822Z,18.83
2022-12-18T19:29:08.147Z,20.00
2022-12-18T19:31:37.033Z,18.15
2022-12-18T19:34:07.901Z,20.42
2022-12-18T19:36:37.940Z,19.23
2022-12-18T19:39:14.179Z,16.27
2022-12-18T19:41:43.279Z,16.92
2022-12-18T19:44:13.121Z,18.00
2022-12-18T19:46:42.383Z,17.55
2022-12-18T19:49:11.228Z,17.92
2022-12-18T19:51:39.045Z,16.20
2022-12-18T19:54:05.876Z,17.50
2022-12-18T19:56:35.128Z,15.77
2022-12-18T19:59:03.147Z,15.80
2022-12-18T20:01:31.539Z,16.77
2022-12-18T20:03:59.760Z,15.77
2022-12-18T20:06:32.575Z,15.93
2022-12-18T20:09:03.003Z,15.52
2022-12-18T20:11:31.357Z,14.77
2022-12-18T20:14:01.390Z,14.50
2022-12-18T20:16:29.346Z,14.43
2022-12-18T20:18:57.993Z,15.43
2022-12-18T20:21:25.620Z,15.85
2022-12-18T20:23:53.146Z,15.27
2022-12-18T20:26:20.446Z,14.60
2022-12-18T20:28:47.296Z,15.07
2022-12-18T20:31:14.605Z,15.93
2022-12-18T20:33:42.959Z,14.73
2022-12-18T20:36:16.345Z,14.73
2022-12-18T20:38:48.497Z,14.65
2022-12-18T20:41:23.276Z,15.18
2022-12-18T20:43:50.970Z,15.00
2022-12-18T20:46:18.279Z,15.73
2022-12-18T20:48:46.147Z,15.80
2022-12-18T20:51:17.021Z,13.45
2022-12-18T20:53:45.352Z,14.38
2022-12-18T20:56:21.909Z,13.27
2022-12-18T20:58:54.992Z,13.75
2022-12-18T21:01:23.608Z,14.23
2022-12-18T21:03:51.156Z,14.75
2022-12-18T21:06:20.452Z,14.93
2022-12-18T21:08:48.951Z,15.55
2022-12-18T21:11:35.950Z,13.98
2022-12-18T21:14:06.230Z,15.88
2022-12-18T21:16:33.175Z,14.55
2022-12-18T21:19:00.418Z,14.25
2022-12-18T21:21:27.386Z,13.85
2022-12-18T21:23:54.958Z,14.30
2022-12-18T21:26:24.302Z,14.23
2022-12-18T21:29:17.053Z,14.73
2022-12-18T21:31:45.427Z,15.15
2022-12-18T21:34:19.487Z,14.75
2022-12-18T21:36:47.576Z,14.35
2022-12-18T21:39:16.005Z,13.38
2022-12-18T21:42:02.205Z,16.00
2022-12-18T21:44:30.479Z,17.42
2022-12-18T21:47:08.070Z,17.30
2022-12-18T21:49:39.891Z,16.10
2022-12-18T21:52:10.007Z,17.17
2022-12-18T21:54:37.184Z,14.85
2022-12-18T21:57:06.044Z,17.42
2022-12-18T21:59:36.315Z,14.93
2022-12-18T22:02:07.873Z,17.50
2022-12-18T22:04:35.068Z,16.52
2022-12-18T22:07:02.971Z,16.95
2022-12-18T22:09:30.131Z,17.70
2022-12-18T22:11:57.080Z,16.85
2022-12-18T22:14:24.696Z,15.63
2022-12-18T22:16:52.523Z,16.83
2022-12-18T22:19:20.560Z,14.35
2022-12-18T22:21:49.353Z,16.55
2022-12-18T22:24:19.508Z,17.63
2022-12-18T22:26:47.291Z,17.48
2022-12-18T22:29:41.489Z,16.65
2022-12-18T22:32:11.169Z,16.80
2022-12-18T22:34:40.896Z,17.20
2022-12-18T22:37:07.713Z,17.20
2022-12-18T22:39:34.861Z,16.58
2022-12-18T22:42:02.298Z,16.58
2022-12-18T22:44:29.578Z,15.70
2022-12-18T22:47:06.487Z,16.35
2022-12-18T22:49:35.675Z,15.15
2022-12-18T22:52:04.122Z,16.77
2022-12-18T22:54:31.277Z,14.05
2022-12-18T22:56:58.116Z,15.27
2022-12-18T22:59:25.314Z,15.10
2022-12-18T23:01:57.129Z,14.80
2022-12-18T23:04:31.185Z,13.57
2022-12-18T23:07:07.664Z,15.07
2022-12-18T23:09:35.103Z,14.52
2022-12-18T23:12:01.979Z,13.52
2022-12-18T23:14:29.600Z,14.05
2022-12-18T23:16:56.492Z,13.30
2022-12-18T23:19:24.173Z,11.35
2022-12-18T23:21:51.663Z,13.38
2022-12-18T23:24:19.989Z,13.52
2022-12-18T23:26:46.814Z,12.30
2022-12-18T23:29:13.976Z,10.82
2022-12-18T23:31:40.903Z,12.48
2022-12-18T23:34:08.870Z,12.52
2022-12-18T23:36:46.427Z,13.15
2022-12-18T23:39:22.339Z,13.52
2022-12-18T23:41:58.131Z,11.38
2022-12-18T23:44:25.646Z,12.45
2022-12-18T23:46:52.847Z,11.43
2022-12-18T23:49:20.082Z,11.93
2022-12-18T23:51:46.888Z,12.07
2022-12-18T23:54:14.186Z,10.32
2022-12-18T23:56:41.129Z,11.50
2022-12-18T23:59:08.292Z,11.40
